Nearby METAR Reports

 

EGSS - Stansted Airport, United Kingdom
Distance from station: NW 15mi, 24km
Updated: 23/07/2019 22:50
Clear
Clear
 Wind from E
Wind: E 12 mph , 19 km/h
Temperature: 22°C
Dew Point: 16°C
Humidity: 69%
Barometer: 1014 hPa
Clouds: Clear
Visibility: 6 miles , 10 km
2019/07/23 21:50 EGSS 232150Z AUTO 10010KT 9999 NCD 22/16 Q1014
EGMC - Southend-On-Sea, United Kingdom
Distance from station: SE 15mi, 25km
Updated: 23/07/2019 22:50
Clear
Clear
 Wind from ENE
Wind: ENE 6 mph , 9 km/h
Temperature: 19°C
Dew Point: 17°C
Humidity: 88%
Barometer: 1014 hPa
Summary: Clear
Visibility: greater than 7 miles , 10 km
2019/07/23 21:50 EGMC 232150Z 06005KT CAVOK 19/17 Q1014
 
EGLC - London City Airp, United Kingdom
Distance from station: SW 24mi, 39km
Updated: 23/07/2019 22:50
Clear
Clear
 Wind from E
Wind: E 12 mph , 19 km/h
Temperature: 24°C
Dew Point: 17°C
Humidity: 65%
Barometer: 1013 hPa
Clouds: Clear
Visibility: 6 miles , 10 km
2019/07/23 21:50 EGLC 232150Z AUTO 08010KT 9999 NCD 24/17 Q1013
EGUW - Wattisham Raf, United Kingdom
Distance from station: NE 34mi, 54km
Updated: 23/07/2019 22:50
Clear
Clear
 Wind from E
Wind: E 9 mph , 15 km/h
Temperature: 21°C
Dew Point: 15°C
Humidity: 69%
Barometer: 1015 hPa
Clouds: Clear
Visibility: 6 miles , 10 km
2019/07/23 21:50 EGUW 232150Z AUTO 10008KT 9999 NCD 21/15 Q1015
 
EGGW - Luton Airport, United Kingdom
Distance from station: WNW 37mi, 59km
Updated: 23/07/2019 22:50
Clear
Clear
 Wind from ESE
Wind: ESE 10 mph , 17 km/h
Temperature: 22°C
Dew Point: 15°C
Humidity: 65%
Barometer: 1014 hPa
Clouds: Clear
Visibility: 6 miles , 10 km
2019/07/23 21:50 EGGW 232150Z AUTO 11009KT 9999 NCD 22/15 Q1014
EGWU - Northolt Raf, United Kingdom
Distance from station: WSW 40mi, 64km
Updated: 23/07/2019 22:50
Mostly cloudy
Mostly cloudy
 Wind from E
Wind: E 9 mph , 15 km/h
Temperature: 25°C
Dew Point: 15°C
Humidity: 54%
Barometer: 1013 hPa
Clouds: Mostly cloudy
Visibility: 6 miles , 10 km
Cloud details: Few Clouds 3048 m
Mostly cloudy 5791 m
2019/07/23 21:50 EGWU 232150Z AUTO 10008KT 9999 // FEW100/// BKN190/// 25/15 Q1013